Time;durP1;ratioP1;P1;durP2;ratioP2;P2;SDS_P1;SDS_P2;PMS_P1;PMS_P2;Temp;Humidity;BMP_temperature;BMP_pressure;BME280_temperature;BME280_humidity;BME280_pressure;Samples;Min_cycle;Max_cycle;Signal;HPM_P1;HPM_P2
2021/12/12 00:01:53;;;;;;;;;;;1.80;99.90;;;0.76;100.00;96322.03;10373551;28;2306;-70
2021/12/12 00:06:56;;;;;;;;;;;1.80;99.90;;;0.87;100.00;96325.91;10381674;28;2302;-70
2021/12/12 00:11:59;;;;;;;;;;;1.90;99.90;;;0.90;100.00;96338.75;10369074;28;2208;-69
2021/12/12 00:17:06;;;;;;;;;;;2.00;99.90;;;0.92;100.00;96344.66;10376048;28;1940;-69
2021/12/12 00:22:09;;;;;;;;;;;1.90;99.90;;;0.91;100.00;96361.56;10375040;28;1831;-70
2021/12/12 00:27:12;;;;;;;;;;;2.00;99.90;;;0.96;100.00;96367.09;10374281;28;2323;-70
2021/12/12 00:32:15;;;;;;;;;;;2.10;99.90;;;1.06;100.00;96364.84;10369890;28;2228;-70
2021/12/12 00:37:18;;;;;;;;;;;2.10;99.90;;;1.14;100.00;96368.34;10386961;28;1914;-69
2021/12/12 00:42:21;;;;;;;;;;;2.20;99.90;;;1.06;100.00;96367.50;10387955;28;1883;-70
2021/12/12 00:47:24;;;;;;;;;;;2.20;99.90;;;1.13;100.00;96362.22;10385393;28;1791;-70
2021/12/12 00:52:41;;;;;;;;;;;2.20;99.90;;;1.16;100.00;96364.50;10378976;28;1837;-70
2021/12/12 00:57:49;;;;;;;;;;;2.20;99.90;;;1.20;100.00;96368.34;10368665;28;1910;-69
2021/12/12 01:02:52;;;;;;;;;;;2.30;99.90;;;1.08;100.00;96373.44;10364562;28;1934;-70
2021/12/12 01:07:55;;;;;;;;;;;2.20;99.90;;;1.04;100.00;96380.13;10376366;28;1936;-70
2021/12/12 01:12:58;;;;;;;;;;;2.20;99.90;;;1.10;100.00;96375.06;10373467;28;1874;-69
2021/12/12 01:18:01;;;;;;;;;;;2.20;99.90;;;1.10;100.00;96388.31;10370839;28;1967;-69
2021/12/12 01:23:04;;;;;;;;;;;2.20;99.90;;;1.07;100.00;96386.84;10378917;28;1851;-70
2021/12/12 01:28:06;;;;;;;;;;;2.20;99.90;;;1.02;100.00;96400.72;10373788;28;1823;-70
2021/12/12 01:33:11;;;;;;;;;;;2.10;99.90;;;1.08;100.00;96413.16;10377395;28;1879;-69
2021/12/12 01:43:35;;;;;;;;;;;2.20;99.90;;;1.15;100.00;96412.38;10375543;28;1893;-71
2021/12/12 01:48:38;;;;;;;;;;;2.20;99.90;;;1.18;100.00;96419.91;10380019;28;1874;-70
2021/12/12 01:53:40;;;;;;;;;;;2.20;99.90;;;1.21;100.00;96419.47;10360063;28;1799;-69
2021/12/12 01:58:44;;;;;;;;;;;2.30;99.90;;;1.29;100.00;96424.63;10372631;28;1914;-70
2021/12/12 02:03:47;;;;;;;;;;;2.30;99.90;;;1.29;100.00;96421.97;10363877;28;1815;-68
2021/12/12 02:08:50;;;;;;;;;;;2.40;99.90;;;1.32;100.00;96421.56;10365616;28;1849;-70
2021/12/12 02:13:55;;;;;;;;;;;2.40;99.90;;;1.32;100.00;96421.56;10366190;28;1851;-70
2021/12/12 02:19:18;;;;;;;;;;;2.40;99.90;;;1.34;100.00;96424.84;10366172;28;1906;-70
2021/12/12 02:35:44;;;;;;;;;;;2.40;99.90;;;1.41;100.00;96430.97;10371667;28;1956;-70
2021/12/12 02:40:48;;;;;;;;;;;2.50;99.90;;;1.33;100.00;96426.66;10364764;28;1911;-69
2021/12/12 02:45:54;;;;;;;;;;;2.50;99.90;;;1.37;100.00;96423.63;10369743;28;2292;-69
2021/12/12 02:50:57;;;;;;;;;;;2.50;99.90;;;1.45;100.00;96432.19;10362507;28;2228;-70
2021/12/12 02:56:00;;;;;;;;;;;2.50;99.90;;;1.43;100.00;96441.38;10360957;28;1995;-69
2021/12/12 03:01:03;;;;;;;;;;;2.50;99.90;;;1.42;100.00;96443.19;10369217;28;2022;-69
2021/12/12 03:06:07;;;;;;;;;;;2.50;99.90;;;1.39;100.00;96453.38;10365297;28;2414;-68
2021/12/12 03:11:10;;;;;;;;;;;2.40;99.90;;;1.39;100.00;96443.59;10359774;28;2074;-69
2021/12/12 03:16:14;;;;;;;;;;;2.40;99.90;;;1.37;100.00;96456.22;10371021;28;1959;-68
2021/12/12 03:21:17;;;;;;;;;;;2.50;99.90;;;1.43;100.00;96454.63;10370578;28;2169;-68
2021/12/12 03:26:20;;;;;;;;;;;2.40;99.90;;;1.32;100.00;96445.41;10362896;28;1936;-70
2021/12/12 03:31:23;;;;;;;;;;;2.50;99.90;;;1.28;100.00;96452.13;10368739;28;2197;-71
2021/12/12 03:36:26;;;;;;;;;;;2.40;99.90;;;1.32;100.00;96463.94;10364300;28;2050;-70
2021/12/12 03:41:30;;;;;;;;;;;2.40;99.90;;;1.34;100.00;96452.16;10384311;28;1998;-68
2021/12/12 03:46:32;;;;;;;;;;;2.50;99.90;;;1.38;100.00;96455.22;10404199;28;1990;-69
2021/12/12 03:51:36;;;;;;;;;;;2.40;99.90;;;1.44;100.00;96451.75;10399289;28;1606;-69
2021/12/12 03:56:39;;;;;;;;;;;2.50;99.90;;;1.42;100.00;96453.00;10396265;28;1958;-69
2021/12/12 04:01:48;;;;;;;;;;;2.50;99.90;;;1.50;100.00;96450.16;10370279;28;2339;-70
2021/12/12 04:06:51;;;;;;;;;;;2.50;99.90;;;1.51;100.00;96455.25;10374102;28;1958;-71
2021/12/12 04:11:54;;;;;;;;;;;2.60;99.90;;;1.52;100.00;96459.53;10367432;28;1968;-69
2021/12/12 04:17:18;;;;;;;;;;;2.60;99.90;;;1.53;100.00;96463.81;10358910;28;2102;-69
2021/12/12 04:22:41;;;;;;;;;;;2.60;99.90;;;1.60;100.00;96469.16;10367215;28;2085;-69
2021/12/12 04:27:44;;;;;;;;;;;2.60;99.90;;;1.65;100.00;96471.16;10371894;28;2404;-69
2021/12/12 04:32:47;;;;;;;;;;;2.70;99.90;;;1.59;100.00;96476.28;10435486;23;1959;-78
2021/12/12 04:37:51;;;;;;;;;;;2.70;99.90;;;1.68;100.00;96492.00;10410362;28;2069;-77
2021/12/12 04:42:55;;;;;;;;;;;2.80;99.90;;;1.62;100.00;96501.56;10404894;28;1994;-76
2021/12/12 04:53:19;;;;;;;;;;;2.80;99.90;;;1.63;100.00;96511.94;10407592;28;2092;-76
2021/12/12 04:58:22;;;;;;;;;;;2.80;99.90;;;1.64;100.00;96510.09;10397359;28;1935;-76
2021/12/12 05:03:25;;;;;;;;;;;2.70;99.90;;;1.69;100.00;96517.47;10396885;28;1903;-76
2021/12/12 05:08:28;;;;;;;;;;;2.80;99.90;;;1.62;100.00;96523.56;10405998;28;1946;-77
2021/12/12 05:13:30;;;;;;;;;;;2.70;99.90;;;1.66;100.00;96531.94;10405236;28;1905;-77
2021/12/12 05:18:33;;;;;;;;;;;2.80;99.90;;;1.55;100.00;96535.16;10417457;28;2021;-78
2021/12/12 05:23:36;;;;;;;;;;;2.70;99.90;;;1.54;100.00;96544.94;10424306;28;1944;-78
2021/12/12 05:28:39;;;;;;;;;;;2.60;99.90;;;1.57;100.00;96556.97;10408440;28;2025;-78
2021/12/12 05:33:43;;;;;;;;;;;2.60;99.90;;;1.54;100.00;96547.59;10407212;28;1902;-77
2021/12/12 05:38:45;;;;;;;;;;;2.60;99.90;;;1.53;100.00;96553.91;10401052;28;2053;-77
2021/12/12 05:43:49;;;;;;;;;;;2.60;99.90;;;1.51;100.00;96540.03;10409625;28;1859;-78
2021/12/12 05:48:53;;;;;;;;;;;2.60;99.90;;;1.47;100.00;96541.47;10400970;28;1789;-78
2021/12/12 05:53:57;;;;;;;;;;;2.60;99.90;;;1.45;100.00;96548.75;10398444;28;1845;-77
2021/12/12 05:58:59;;;;;;;;;;;2.80;99.90;;;1.35;100.00;96556.28;10420324;28;1910;-77
2021/12/12 06:04:02;;;;;;;;;;;2.50;99.90;;;1.34;100.00;96562.59;10406890;28;1857;-77
2021/12/12 06:09:05;;;;;;;;;;;2.50;99.90;;;1.42;100.00;96559.78;10406892;28;1890;-77
2021/12/12 06:14:08;;;;;;;;;;;2.50;99.90;;;1.39;100.00;96567.28;10410869;28;2038;-76
2021/12/12 06:19:11;;;;;;;;;;;2.50;99.90;;;1.36;100.00;96573.81;10408735;28;1910;-76
2021/12/12 06:24:14;;;;;;;;;;;2.50;99.90;;;1.39;100.00;96581.34;10408971;28;1982;-78
2021/12/12 06:29:17;;;;;;;;;;;2.50;99.90;;;1.35;100.00;96577.47;10415457;28;2079;-78
2021/12/12 06:34:19;;;;;;;;;;;2.50;99.90;;;1.38;100.00;96592.97;10411428;28;1818;-78
2021/12/12 06:39:22;;;;;;;;;;;2.50;99.90;;;1.38;100.00;96594.78;10446690;28;1965;-77
2021/12/12 06:44:25;;;;;;;;;;;2.40;99.90;;;1.32;100.00;96597.19;10455007;28;2068;-78
2021/12/12 06:49:28;;;;;;;;;;;2.40;99.90;;;1.38;100.00;96606.19;10461151;28;1807;-77
2021/12/12 06:54:31;;;;;;;;;;;2.40;99.90;;;1.36;100.00;96600.28;10417084;28;1504;-76
2021/12/12 06:59:34;;;;;;;;;;;2.40;99.90;;;1.44;100.00;96605.41;10416635;28;1976;-77
2021/12/12 07:04:37;;;;;;;;;;;2.40;99.90;;;1.46;99.68;96616.63;10413600;28;1929;-78
2021/12/12 07:09:40;;;;;;;;;;;2.80;99.90;;;1.43;98.08;96624.16;10427273;28;1850;-78
2021/12/12 07:14:44;;;;;;;;;;;2.50;99.90;;;1.51;98.30;96619.53;10413244;28;1809;-78
2021/12/12 07:19:48;;;;;;;;;;;2.50;99.90;;;1.58;97.71;96609.78;10415687;28;2021;-78
2021/12/12 07:24:51;;;;;;;;;;;2.60;99.90;;;1.56;96.14;96627.72;10455429;22;3760;-73
2021/12/12 07:29:54;;;;;;;;;;;2.60;99.90;;;1.55;97.97;96639.31;10491376;28;2028;-72
2021/12/12 07:34:57;;;;;;;;;;;2.60;99.90;;;1.57;96.69;96647.88;10479218;28;2203;-72
2021/12/12 07:40:00;;;;;;;;;;;2.60;99.90;;;1.60;95.58;96650.16;10473004;28;2057;-72
2021/12/12 07:45:04;;;;;;;;;;;2.60;99.90;;;1.54;95.96;96656.25;10482516;28;1931;-73
2021/12/12 07:50:06;;;;;;;;;;;2.60;99.90;;;1.56;96.76;96664.81;10475610;28;1964;-73
2021/12/12 07:55:11;;;;;;;;;;;2.60;99.90;;;1.63;95.13;96655.06;10474226;28;1877;-73
2021/12/12 08:00:14;;;;;;;;;;;2.60;99.90;;;1.71;94.84;96653.25;10478680;28;1974;-73
2021/12/12 08:05:17;;;;;;;;;;;2.70;99.90;;;1.72;94.27;96661.03;10470445;28;1866;-72
2021/12/12 08:10:21;;;;;;;;;;;2.80;99.90;;;1.83;92.75;96649.84;10473666;28;1944;-72
2021/12/12 08:15:26;;;;;;;;;;;2.80;99.90;;;1.98;93.76;96641.78;10457622;28;1872;-71
2021/12/12 08:20:30;;;;;;;;;;;2.90;99.90;;;2.11;93.19;96649.78;10475031;28;1943;-74
2021/12/12 08:25:33;;;;;;;;;;;3.00;99.90;;;2.10;92.07;96656.09;10470547;28;2031;-73
2021/12/12 08:30:36;;;;;;;;;;;3.00;99.90;;;2.09;91.95;96650.97;10475403;28;1817;-74
2021/12/12 08:35:39;;;;;;;;;;;3.00;99.90;;;2.27;90.35;96653.09;10473615;28;1876;-73
2021/12/12 08:40:43;;;;;;;;;;;3.20;99.90;;;2.51;89.38;96654.38;10483518;28;1919;-73
2021/12/12 08:45:46;;;;;;;;;;;3.30;99.90;;;2.56;88.89;96658.06;10485069;28;1848;-74
2021/12/12 08:50:49;;;;;;;;;;;3.50;99.90;;;2.81;88.52;96657.50;10484242;28;1896;-73
2021/12/12 08:55:53;;;;;;;;;;;3.60;99.90;;;2.43;87.89;96650.88;10479688;28;1771;-74
2021/12/12 09:00:56;;;;;;;;;;;3.70;99.90;;;2.10;90.18;96648.16;10480382;28;1918;-73
2021/12/12 09:06:00;;;;;;;;;;;3.40;99.90;;;1.80;90.68;96641.50;10486662;28;1613;-74
2021/12/12 09:11:03;;;;;;;;;;;3.10;99.90;;;1.76;92.57;96658.78;10480722;28;2224;-74
2021/12/12 09:16:06;;;;;;;;;;;2.90;99.90;;;1.74;93.28;96652.88;10470245;28;1960;-73
2021/12/12 09:21:10;;;;;;;;;;;2.90;99.90;;;1.80;93.56;96654.75;10478548;28;1950;-74
2021/12/12 09:26:13;;;;;;;;;;;3.20;99.90;;;1.80;92.47;96666.16;10479218;28;2264;-74
2021/12/12 09:31:17;;;;;;;;;;;2.90;99.90;;;1.96;92.43;96662.34;10478378;28;1916;-73
2021/12/12 09:36:20;;;;;;;;;;;3.10;99.90;;;2.09;91.97;96665.06;10487725;28;1757;-73
2021/12/12 09:41:24;;;;;;;;;;;3.10;99.90;;;2.31;91.50;96668.41;10485367;28;2312;-74
2021/12/12 09:46:31;;;;;;;;;;;3.30;99.90;;;2.60;90.10;96671.72;10477169;28;2236;-75
2021/12/12 09:51:34;;;;;;;;;;;3.50;99.90;;;2.80;88.57;96663.78;10471749;28;2220;-70
2021/12/12 09:56:36;;;;;;;;;;;3.60;99.90;;;2.92;87.67;96651.53;10474532;28;1825;-72
2021/12/12 10:01:39;;;;;;;;;;;3.80;99.90;;;2.88;87.65;96653.00;10475449;28;1981;-71
2021/12/12 10:06:43;;;;;;;;;;;3.90;99.90;;;2.72;86.77;96643.56;10481660;28;1958;-71
2021/12/12 10:11:45;;;;;;;;;;;3.90;99.90;;;2.75;86.23;96639.72;10472760;28;2339;-71
2021/12/12 10:16:49;;;;;;;;;;;3.80;99.90;;;2.71;88.04;96640.09;10465023;28;1765;-69
2021/12/12 10:21:51;;;;;;;;;;;3.80;99.90;;;2.89;87.24;96633.38;10471732;28;1980;-70
2021/12/12 10:26:54;;;;;;;;;;;3.90;99.90;;;2.81;86.16;96628.28;10461051;28;1845;-71
2021/12/12 10:31:57;;;;;;;;;;;4.00;99.90;;;2.74;87.99;96622.16;10484996;28;1858;-72
2021/12/12 10:37:00;;;;;;;;;;;3.90;99.90;;;2.77;88.41;96616.41;10469878;28;1888;-72
2021/12/12 10:42:03;;;;;;;;;;;3.90;99.90;;;2.81;87.88;96622.97;10473392;28;1989;-73
2021/12/12 10:47:06;;;;;;;;;;;3.80;99.90;;;2.84;87.96;96610.09;10485846;28;1896;-71
2021/12/12 10:52:09;;;;;;;;;;;3.90;99.90;;;2.81;87.69;96601.72;10473505;28;1891;-70
2021/12/12 10:57:12;;;;;;;;;;;3.90;99.90;;;2.84;88.07;96598.66;10466682;28;1995;-69
2021/12/12 11:02:15;;;;;;;;;;;3.90;99.90;;;2.98;87.45;96593.13;10476211;28;1978;-69
2021/12/12 11:07:18;;;;;;;;;;;4.00;99.90;;;3.01;86.82;96601.72;10466726;28;1895;-71
2021/12/12 11:12:24;;;;;;;;;;;4.10;99.90;;;3.08;86.09;96599.88;10477677;28;1876;-69
2021/12/12 11:17:27;;;;;;;;;;;4.20;99.90;;;3.13;85.88;96594.75;10477696;28;2031;-69
2021/12/12 11:22:30;;;;;;;;;;;4.20;99.90;;;3.14;85.10;96580.44;10472346;28;1975;-71
2021/12/12 11:27:33;;;;;;;;;;;4.20;99.90;;;3.25;84.23;96582.47;10492521;22;3617;-72
2021/12/12 11:32:36;;;;;;;;;;;4.30;99.90;;;3.33;83.83;96578.78;10453212;28;1924;-71
2021/12/12 11:37:39;;;;;;;;;;;4.30;99.90;;;3.67;82.05;96573.13;10441774;28;1909;-72
2021/12/12 11:42:42;;;;;;;;;;;4.50;99.90;;;3.97;80.99;96577.94;10398876;28;1982;-72
2021/12/12 11:47:45;;;;;;;;;;;4.80;99.90;;;4.44;77.17;96581.13;10392874;28;1930;-71
2021/12/12 11:52:48;;;;;;;;;;;5.00;99.90;;;4.47;74.81;96580.72;10392958;28;1907;-72
2021/12/12 11:57:51;;;;;;;;;;;5.30;99.90;;;4.53;75.34;96580.66;10398239;28;1892;-71
2021/12/12 12:02:54;;;;;;;;;;;5.40;99.90;;;5.00;74.28;96569.63;10391931;28;1991;-71
2021/12/12 12:07:58;;;;;;;;;;;6.40;99.90;;;5.02;73.27;96573.72;10402853;28;1932;-75
2021/12/12 12:13:02;;;;;;;;;;;5.80;99.90;;;5.11;74.13;96577.75;10399277;28;1828;-72
2021/12/12 12:18:05;;;;;;;;;;;5.90;99.90;;;5.38;73.69;96567.63;10408227;28;1905;-72
2021/12/12 12:23:11;;;;;;;;;;;6.00;99.90;;;5.33;71.76;96567.47;10396213;28;1922;-71
2021/12/12 12:28:15;;;;;;;;;;;6.10;99.90;;;5.36;73.39;96567.03;10394784;28;1929;-70
2021/12/12 12:33:18;;;;;;;;;;;6.10;99.90;;;5.19;71.30;96563.31;10408030;28;1789;-72
2021/12/12 12:38:21;;;;;;;;;;;6.20;99.90;;;5.10;70.88;96554.78;10399107;28;1925;-71
2021/12/12 12:43:24;;;;;;;;;;;6.10;99.90;;;5.18;70.44;96550.22;10407115;28;1914;-72
2021/12/12 12:48:27;;;;;;;;;;;6.00;99.90;;;5.13;70.98;96549.00;10406551;28;1842;-71
2021/12/12 12:53:31;;;;;;;;;;;;;;;5.27;69.57;96552.34;10398034;28;1826;-71
2021/12/12 12:58:34;;;;;;;;;;;6.30;99.90;;;5.40;69.00;96544.22;10410141;28;1853;-71
2021/12/12 13:03:36;;;;;;;;;;;6.40;99.90;;;5.61;68.50;96534.16;10405778;28;1985;-71
2021/12/12 13:08:39;;;;;;;;;;;6.60;99.90;;;5.53;67.90;96532.59;10410048;28;1957;-71
2021/12/12 13:13:43;;;;;;;;;;;6.40;99.90;;;5.55;69.34;96532.38;10411231;28;1912;-71
2021/12/12 13:18:46;;;;;;;;;;;6.40;99.90;;;5.41;69.11;96531.72;10404151;28;1778;-70
2021/12/12 13:23:52;;;;;;;;;;;6.40;99.90;;;5.60;68.11;96533.34;10405824;28;1905;-71
2021/12/12 13:28:56;;;;;;;;;;;6.40;99.90;;;5.33;68.90;96532.81;10394073;28;2250;-72
2021/12/12 13:34:00;;;;;;;;;;;6.30;99.90;;;5.18;69.14;96528.88;10407210;28;1894;-73
2021/12/12 13:39:05;;;;;;;;;;;6.20;99.90;;;5.03;67.80;96526.59;10406586;28;1944;-71
2021/12/12 13:44:08;;;;;;;;;;;6.00;99.90;;;4.82;69.01;96533.94;10407356;28;1813;-71
2021/12/12 13:49:11;;;;;;;;;;;5.90;99.90;;;4.80;69.79;96517.34;10401641;28;1829;-70
2021/12/12 13:54:14;;;;;;;;;;;5.80;99.90;;;4.63;69.38;96516.25;10405310;28;1830;-71
2021/12/12 13:59:34;;;;;;;;;;;5.70;99.90;;;4.88;68.93;96529.56;10401223;28;1894;-70
2021/12/12 14:04:37;;;;;;;;;;;5.70;99.90;;;4.94;70.26;96538.53;10392240;28;2060;-71
2021/12/12 14:09:40;;;;;;;;;;;5.70;99.90;;;5.10;68.25;96536.13;10408207;28;1806;-70
2021/12/12 14:14:44;;;;;;;;;;;5.80;99.90;;;5.06;67.91;96545.59;10402401;28;1830;-71
2021/12/12 14:19:47;;;;;;;;;;;6.00;99.90;;;5.02;67.91;96543.59;10399420;28;1914;-71
2021/12/12 14:24:51;;;;;;;;;;;5.90;99.90;;;5.00;68.74;96549.13;10394084;28;1845;-72
2021/12/12 14:29:54;;;;;;;;;;;5.90;99.90;;;5.02;68.52;96551.56;10405319;28;1819;-70
2021/12/12 14:34:57;;;;;;;;;;;5.90;99.90;;;4.91;69.47;96555.78;10402309;28;1974;-70
2021/12/12 14:40:00;;;;;;;;;;;5.90;99.90;;;4.78;70.07;96556.72;10391465;28;1953;-72
2021/12/12 14:45:03;;;;;;;;;;;5.70;99.90;;;4.63;68.94;96564.19;10407829;28;1868;-71
2021/12/12 14:50:06;;;;;;;;;;;5.70;99.90;;;4.55;70.83;96565.28;10396038;28;1925;-70
2021/12/12 14:55:10;;;;;;;;;;;5.50;99.90;;;4.46;71.53;96561.28;10399748;28;1809;-71
2021/12/12 15:00:13;;;;;;;;;;;5.50;99.90;;;4.37;71.33;96565.22;10395063;28;1989;-71
2021/12/12 15:05:16;;;;;;;;;;;5.50;99.90;;;4.26;71.55;96563.22;10396321;28;2115;-72
2021/12/12 15:10:19;;;;;;;;;;;5.40;99.90;;;4.19;71.53;96565.09;10399340;28;1881;-71
2021/12/12 15:15:23;;;;;;;;;;;5.30;99.90;;;4.20;71.79;96572.06;10405463;28;1867;-70
2021/12/12 15:20:26;;;;;;;;;;;5.30;99.90;;;4.09;72.04;96575.41;10392741;28;1911;-71
2021/12/12 15:25:29;;;;;;;;;;;5.10;99.90;;;4.13;72.96;96574.75;10386870;28;1805;-71
2021/12/12 15:30:34;;;;;;;;;;;5.20;99.90;;;4.04;71.82;96573.38;10386962;28;1852;-71
2021/12/12 15:35:38;;;;;;;;;;;5.10;99.90;;;3.99;71.91;96583.84;10399425;28;1955;-73
2021/12/12 15:40:41;;;;;;;;;;;5.10;99.90;;;4.01;72.84;96587.13;10396746;28;1919;-71
2021/12/12 15:45:44;;;;;;;;;;;5.00;99.90;;;3.97;73.49;96584.06;10402488;28;1761;-71
2021/12/12 15:50:47;;;;;;;;;;;5.00;99.90;;;4.04;72.97;96584.84;10388855;28;1835;-71
2021/12/12 15:55:50;;;;;;;;;;;5.10;99.90;;;3.95;73.30;96598.63;10395625;28;1970;-70
2021/12/12 16:00:53;;;;;;;;;;;5.00;99.90;;;3.98;74.29;96587.53;10393419;28;1983;-70
2021/12/12 16:05:57;;;;;;;;;;;5.00;99.90;;;3.96;72.50;96581.63;10394825;28;1913;-71
2021/12/12 16:11:00;;;;;;;;;;;5.10;99.90;;;3.96;73.39;96593.06;10390129;28;1861;-71
2021/12/12 16:16:03;;;;;;;;;;;5.00;99.90;;;3.87;72.91;96585.53;10391108;28;1918;-71
2021/12/12 16:21:07;;;;;;;;;;;4.90;99.90;;;3.85;73.57;96592.91;10389373;28;2062;-71
2021/12/12 16:26:13;;;;;;;;;;;4.90;99.90;;;3.87;73.73;96585.53;10401297;28;1813;-71
2021/12/12 16:31:16;;;;;;;;;;;4.80;99.90;;;3.93;75.24;96592.66;10392487;28;2059;-72
2021/12/12 16:36:20;;;;;;;;;;;4.80;99.90;;;3.96;74.27;96589.59;10396740;28;1862;-71
2021/12/12 16:41:23;;;;;;;;;;;4.90;99.90;;;3.90;73.60;96585.13;10405395;28;1903;-70
2021/12/12 16:46:26;;;;;;;;;;;5.00;99.90;;;3.92;73.07;96583.88;10387639;28;1901;-72
2021/12/12 16:51:30;;;;;;;;;;;4.90;99.90;;;3.97;74.19;96593.88;10388513;28;2203;-70
2021/12/12 16:56:33;;;;;;;;;;;4.90;99.90;;;3.98;73.67;96584.88;10386678;28;1918;-70
2021/12/12 17:01:36;;;;;;;;;;;5.00;99.90;;;4.02;74.20;96584.25;10390828;28;2071;-70
2021/12/12 17:06:39;;;;;;;;;;;5.00;99.90;;;3.97;74.11;96591.22;10395676;28;2022;-70
2021/12/12 17:11:42;;;;;;;;;;;5.00;99.90;;;3.99;73.70;96597.16;10402409;28;1968;-71
2021/12/12 17:16:46;;;;;;;;;;;5.10;99.90;;;3.98;72.10;96606.16;10405423;28;1908;-70
2021/12/12 17:21:50;;;;;;;;;;;4.90;99.90;;;4.07;72.99;96612.84;10391870;28;2017;-71
2021/12/12 17:26:53;;;;;;;;;;;4.90;99.90;;;4.02;72.30;96613.53;10408868;28;1987;-72
2021/12/12 17:31:55;;;;;;;;;;;5.00;99.90;;;4.01;73.40;96614.56;10402110;28;1774;-69
2021/12/12 17:36:58;;;;;;;;;;;5.00;99.90;;;3.97;73.09;96623.16;10404631;28;1821;-73
2021/12/12 17:42:01;;;;;;;;;;;5.10;99.90;;;4.00;73.96;96623.53;10405578;28;1918;-73
2021/12/12 17:47:05;;;;;;;;;;;5.10;99.90;;;3.94;72.48;96624.38;10402652;28;1962;-72
2021/12/12 17:52:08;;;;;;;;;;;5.10;99.90;;;3.96;72.51;96618.88;10385866;28;1946;-72
2021/12/12 17:57:11;;;;;;;;;;;5.00;99.90;;;3.96;71.84;96614.34;10404220;28;1897;-72
2021/12/12 18:02:14;;;;;;;;;;;5.00;99.90;;;3.93;72.77;96611.28;10387936;28;1983;-72
2021/12/12 18:07:17;;;;;;;;;;;5.00;99.90;;;3.94;72.84;96602.28;10402059;28;2226;-72
2021/12/12 18:12:20;;;;;;;;;;;5.10;99.90;;;3.92;72.65;96599.84;10393841;28;1906;-71
2021/12/12 18:17:25;;;;;;;;;;;5.00;99.90;;;3.93;72.82;96611.28;10400603;28;1810;-72
2021/12/12 18:22:49;;;;;;;;;;;4.90;99.90;;;3.87;72.99;96599.66;10397362;28;1916;-70
2021/12/12 18:27:53;;;;;;;;;;;4.90;99.90;;;3.90;72.69;96593.09;10402541;28;1921;-75
2021/12/12 18:32:56;;;;;;;;;;;4.90;99.90;;;3.96;72.40;96594.94;10385800;28;1927;-76
2021/12/12 18:38:00;;;;;;;;;;;5.00;99.90;;;3.80;73.23;96591.69;10422760;28;2274;-74
2021/12/12 18:43:03;;;;;;;;;;;4.90;99.90;;;3.81;73.88;96584.53;10442094;28;1957;-75
2021/12/12 18:48:08;;;;;;;;;;;4.90;99.90;;;3.72;73.65;96589.28;10480753;22;2225;-79
2021/12/12 18:53:12;;;;;;;;;;;5.30;99.90;;;3.74;73.69;96595.19;10507279;28;1788;-79
2021/12/12 18:58:15;;;;;;;;;;;4.80;99.90;;;3.84;73.92;96592.09;10499453;28;2007;-79
2021/12/12 19:03:20;;;;;;;;;;;4.70;99.90;;;3.86;74.18;96589.22;10506409;28;1977;-79
2021/12/12 19:08:23;;;;;;;;;;;5.40;99.90;;;3.84;74.00;96580.66;10507002;28;1535;-78
2021/12/12 19:13:27;;;;;;;;;;;4.80;99.90;;;3.87;74.47;96588.19;10504275;28;2125;-79
2021/12/12 19:18:31;;;;;;;;;;;4.90;99.90;;;3.66;82.56;96598.09;10503832;28;1340;-78
2021/12/12 19:23:39;;;;;;;;;;;4.80;99.90;;;3.40;82.76;96595.53;10511566;28;1959;-79
2021/12/12 19:28:43;;;;;;;;;;;4.60;99.90;;;3.44;84.48;96596.75;10500340;28;1434;-80
2021/12/12 19:33:47;;;;;;;;;;;4.50;99.90;;;3.32;82.87;96606.38;10502267;28;1818;-81
2021/12/12 19:38:50;;;;;;;;;;;4.90;99.90;;;3.34;83.03;96601.66;10497360;28;1422;-80
2021/12/12 19:43:55;;;;;;;;;;;4.40;99.90;;;3.28;80.67;96605.16;10501983;28;1921;-81
2021/12/12 19:48:58;;;;;;;;;;;4.30;99.90;;;3.35;81.77;96603.28;10499879;28;1366;-82
2021/12/12 19:54:01;;;;;;;;;;;4.40;99.90;;;3.38;81.31;96611.69;10510406;28;1521;-81
2021/12/12 19:59:05;;;;;;;;;;;4.70;99.90;;;3.38;81.73;96602.91;10505418;28;1692;-80
2021/12/12 20:04:08;;;;;;;;;;;4.40;99.90;;;3.44;83.56;96591.44;10497904;28;1910;-81
2021/12/12 20:09:17;;;;;;;;;;;4.40;99.90;;;3.48;81.27;96600.59;10492029;28;1196;-81
2021/12/12 20:14:20;;;;;;;;;;;4.40;99.90;;;3.52;80.53;96599.16;10500726;28;1233;-79
2021/12/12 20:19:23;;;;;;;;;;;4.50;99.90;;;3.57;78.53;96595.91;10497097;28;1567;-77
2021/12/12 20:24:28;;;;;;;;;;;4.60;99.90;;;3.61;80.10;96605.88;10508962;28;1902;-79
2021/12/12 20:29:33;;;;;;;;;;;4.60;99.90;;;3.48;82.60;96604.06;10508253;28;1362;-82
2021/12/12 20:34:36;;;;;;;;;;;4.60;99.90;;;3.45;84.40;96593.88;10499138;28;1892;-80
2021/12/12 20:39:41;;;;;;;;;;;4.50;99.90;;;3.43;82.58;96589.78;10501068;28;1810;-83
2021/12/12 20:44:51;;;;;;;;;;;4.50;99.90;;;3.23;84.67;96595.13;10498748;28;1973;-84
2021/12/12 20:49:54;;;;;;;;;;;4.50;99.90;;;3.15;91.43;96603.31;10503660;28;1310;-81
2021/12/12 20:54:58;;;;;;;;;;;4.20;99.90;;;3.08;95.74;96597.22;10531617;28;1518;-83
2021/12/12 21:00:02;;;;;;;;;;;5.00;99.90;;;3.04;97.11;96591.47;10525022;28;1341;-83
2021/12/12 21:05:05;;;;;;;;;;;4.20;99.90;;;3.05;96.92;96598.41;10515551;28;1895;-82
2021/12/12 21:10:11;;;;;;;;;;;4.60;99.90;;;3.02;95.91;96574.94;10497312;28;1416;-82
2021/12/12 21:15:14;;;;;;;;;;;4.10;99.90;;;3.06;96.93;96585.97;10508158;28;1820;-82
2021/12/12 21:20:30;;;;;;;;;;;4.50;99.90;;;3.12;95.86;96578.00;10501416;28;1592;-82
2021/12/12 21:25:38;;;;;;;;;;;4.10;99.90;;;3.19;95.84;96578.00;10505474;28;1918;-84
2021/12/12 21:30:53;;;;;;;;;;;4.20;99.90;;;3.30;95.21;96577.34;10500394;28;1691;-85
2021/12/12 21:36:08;;;;;;;;;;;5.00;99.90;;;3.30;90.60;96573.88;10522865;28;1779;-83
2021/12/12 21:41:12;;;;;;;;;;;5.00;99.90;;;3.32;93.23;96579.81;10510858;28;2031;-83
2021/12/12 21:46:22;;;;;;;;;;;4.40;99.90;;;3.40;94.34;96579.56;10508862;28;2154;-83
2021/12/12 21:51:26;;;;;;;;;;;5.10;99.90;;;3.44;91.29;96580.81;10500263;28;1358;-83
2021/12/12 21:56:29;;;;;;;;;;;4.40;99.90;;;3.51;89.82;96590.38;10511891;28;1486;-83
2021/12/12 22:01:32;;;;;;;;;;;5.30;99.90;;;3.58;92.49;96587.69;10514395;28;1953;-83
2021/12/12 22:06:36;;;;;;;;;;;5.30;99.90;;;3.56;88.07;96592.38;10497538;28;1305;-82
2021/12/12 22:11:40;;;;;;;;;;;4.60;99.90;;;3.59;88.72;96597.31;10496921;28;1861;-82
2021/12/12 22:16:45;;;;;;;;;;;4.60;99.90;;;3.58;88.34;96593.03;10507380;28;1399;-81
2021/12/12 22:21:49;;;;;;;;;;;4.60;99.90;;;3.62;88.97;96594.22;10520749;28;2160;-85
2021/12/12 22:26:55;;;;;;;;;;;4.60;99.90;;;3.60;85.84;96592.81;10524097;28;2102;-82
2021/12/12 22:32:01;;;;;;;;;;;5.30;99.90;;;3.64;87.03;96594.84;10505536;28;1899;-84
2021/12/12 22:37:06;;;;;;;;;;;5.00;99.90;;;3.58;89.30;96586.88;10504884;28;1890;-83
2021/12/12 22:42:12;;;;;;;;;;;4.50;99.90;;;3.62;88.48;96585.44;10491852;28;1887;-83
2021/12/12 22:47:16;;;;;;;;;;;5.20;99.90;;;3.57;85.75;96588.72;10511098;28;1100;-82
2021/12/12 22:52:23;;;;;;;;;;;4.50;99.90;;;3.45;89.10;96593.06;10500260;28;1861;-82
2021/12/12 22:57:28;;;;;;;;;;;5.20;99.90;;;3.41;92.44;96581.19;10500721;28;1962;-80
2021/12/12 23:02:33;;;;;;;;;;;4.40;99.90;;;3.24;91.20;96570.19;10508235;28;1956;-82
2021/12/12 23:07:36;;;;;;;;;;;4.30;99.90;;;3.09;94.97;96559.00;10494816;28;1983;-84
2021/12/12 23:12:39;;;;;;;;;;;5.00;99.90;;;3.06;98.42;96556.75;10504866;28;2058;-82
2021/12/12 23:17:48;;;;;;;;;;;5.10;99.90;;;3.06;100.00;96557.56;10515188;28;1864;-83
2021/12/12 23:22:51;;;;;;;;;;;4.70;99.90;;;3.00;100.00;96557.59;10529977;22;2285;-81
2021/12/12 23:28:09;;;;;;;;;;;4.20;99.90;;;2.87;100.00;96561.91;10487945;28;1874;-80
2021/12/12 23:33:13;;;;;;;;;;;3.90;99.90;;;2.84;100.00;96543.69;10480588;28;1836;-78
2021/12/12 23:38:16;;;;;;;;;;;3.90;99.90;;;2.85;100.00;96544.50;10485288;28;2212;-79
2021/12/12 23:43:21;;;;;;;;;;;3.90;99.90;;;2.79;100.00;96551.47;10497541;28;1917;-81
2021/12/12 23:48:24;;;;;;;;;;;3.80;99.90;;;2.75;100.00;96544.13;10497630;28;1952;-79
2021/12/12 23:53:27;;;;;;;;;;;3.90;99.90;;;2.74;100.00;96547.81;10487473;28;1786;-80
2021/12/12 23:58:31;;;;;;;;;;;3.70;99.90;;;2.71;100.00;96556.97;10483339;28;1568;-79
